This is the latest recevied weather packets stored in our database for station/object WC0AA. If no packets are shown the sender has not sent any weather packets the latest 10 day(s).
| Time | Temp. | Humidity | Pressure | Rain* | Wind** | Luminosity | Snow |
|---|---|---|---|---|---|---|---|
| 1778276404 | 22.22° C | 50% | 1008.4 hPa | 0 mm | - | - | - |
| 1778274604 | 21.11° C | 54% | 1008.5 hPa | 0 mm | - | - | - |
| 1778269804 | 19.44° C | 58% | 1008.8 hPa | 0 mm | - | - | - |
| 1778265005 | 18.89° C | 53% | 1008.9 hPa | 0 mm | - | - | - |
| 1778261405 | 20° C | 55% | 1008.9 hPa | 0 mm | - | - | - |
| 1778260805 | 20° C | 58% | 1009.3 hPa | 0 mm | - | - | - |
| 1778257805 | 16.67° C | 74% | 1010 hPa | 0 mm | - | - | - |
| 1778257204 | 16.11° C | 75% | 1009.9 hPa | 0 mm | - | - | - |
| 1778254805 | 15.56° C | 77% | 1009.5 hPa | 0 mm | - | - | - |
| 1778244005 | 10° C | 90% | 1009.8 hPa | 0 mm | - | - | - |
| 1778238004 | 8.89° C | 83% | 1008.4 hPa | 0 mm | - | - | - |
| 1778236204 | 10° C | 79% | 1008.4 hPa | 0 mm | - | - | - |
| 1778233204 | 10° C | 81% | 1009 hPa | 0 mm | - | - | - |
| 1778232604 | 10° C | 83% | 1008.6 hPa | 0 mm | - | - | - |
| 1778230204 | 8.89° C | 86% | 1008.4 hPa | 0 mm | - | - | - |
| 1778226604 | 8.89° C | 84% | 1008.7 hPa | 0 mm | - | - | - |
| 1778224804 | 9.44° C | 84% | 1009.2 hPa | 0 mm | - | - | - |
| 1778223004 | 9.44° C | 80% | 1009.3 hPa | 0 mm | - | - | - |
| 1778221804 | 10.56° C | 80% | 1009.6 hPa | 0 mm | - | - | - |
| 1778220604 | 10.56° C | 77% | 1009.6 hPa | 0 mm | - | - | - |
| 1778220004 | 10.56° C | 75% | 1009.5 hPa | 0 mm | - | - | - |
| 1778214004 | 13.33° C | 60% | 1010.2 hPa | 0 mm | - | - | - |
| 1778212804 | 14.44° C | 47% | 1010.3 hPa | 0 mm | - | - | - |
| 1778206205 | 17.22° C | 47% | 1009.3 hPa | 0 mm | - | - | - |
| 1778197204 | 23.89° C | 31% | 1008.3 hPa | 0 mm | - | - | - |
* Rain latest hour (hover to see other rain measurements)
** Current wind speed in m/s (hover to see current wind gust speed)